Time;durP1;ratioP1;P1;durP2;ratioP2;P2;SDS_P1;SDS_P2;PMS_P1;PMS_P2;Temp;Humidity;BMP_temperature;BMP_pressure;BME280_temperature;BME280_humidity;BME280_pressure;Samples;Min_cycle;Max_cycle;Signal;HPM_P1;HPM_P2
2023/07/10 00:02:18;;;;;;;;;;;28.20;56.90;;;;;;5059057;28;19921;-54
2023/07/10 00:04:44;;;;;;;;;;;28.20;57.50;;;;;;5062568;28;19924;-54
2023/07/10 00:07:09;;;;;;;;;;;28.20;57.20;;;;;;5072875;28;19913;-54
2023/07/10 00:09:35;;;;;;;;;;;28.20;57.30;;;;;;5067516;28;20373;-53
2023/07/10 00:12:01;;;;;;;;;;;28.20;57.50;;;;;;5068936;28;19912;-53
2023/07/10 00:14:26;;;;;;;;;;;28.20;57.60;;;;;;5071454;28;19923;-53
2023/07/10 00:16:52;;;;;;;;;;;28.20;57.80;;;;;;5055060;28;19919;-54
2023/07/10 00:19:17;;;;;;;;;;;28.20;57.20;;;;;;5051849;28;20023;-53
2023/07/10 00:21:43;;;;;;;;;;;28.10;56.50;;;;;;5056896;28;19963;-54
2023/07/10 00:24:08;;;;;;;;;;;28.10;57.50;;;;;;5072726;28;19959;-53
2023/07/10 00:26:37;;;;;;;;;;;28.10;57.50;;;;;;5055145;28;20353;-54
2023/07/10 00:29:14;;;;;;;;;;;28.20;57.40;;;;;;5053415;28;19913;-54
2023/07/10 00:31:40;;;;;;;;;;;28.10;57.40;;;;;;5051429;28;19913;-53
2023/07/10 00:34:07;;;;;;;;;;;28.10;57.00;;;;;;5066220;28;19917;-54
2023/07/10 00:36:38;;;;;;;;;;;28.10;57.40;;;;;;5055520;28;20281;-54
2023/07/10 00:39:23;;;;;;;;;;;28.10;56.80;;;;;;5061452;28;19916;-54
2023/07/10 00:42:02;;;;;;;;;;;28.10;57.40;;;;;;5054328;28;19919;-53
2023/07/10 00:44:32;;;;;;;;;;;28.10;57.30;;;;;;5053046;28;19913;-54
2023/07/10 00:46:59;;;;;;;;;;;28.10;57.60;;;;;;5051085;28;19955;-54
2023/07/10 00:49:30;;;;;;;;;;;28.10;57.80;;;;;;5051896;28;19920;-53
2023/07/10 00:52:04;;;;;;;;;;;28.10;57.00;;;;;;5054197;28;19920;-53
2023/07/10 00:54:34;;;;;;;;;;;28.10;57.10;;;;;;5049484;28;19917;-53
2023/07/10 00:57:00;;;;;;;;;;;28.10;56.70;;;;;;5050973;28;19912;-54
2023/07/10 00:59:25;;;;;;;;;;;28.00;57.50;;;;;;5051727;28;19999;-53
2023/07/10 01:02:13;;;;;;;;;;;28.10;57.30;;;;;;5052086;28;19912;-55
2023/07/10 01:04:42;;;;;;;;;;;28.10;57.10;;;;;;5051146;28;19913;-54
2023/07/10 01:07:08;;;;;;;;;;;28.00;56.60;;;;;;5065753;28;19916;-53
2023/07/10 01:09:33;;;;;;;;;;;28.00;56.90;;;;;;5053335;28;20280;-53
2023/07/10 01:11:59;;;;;;;;;;;28.00;57.40;;;;;;5052761;28;19919;-53
2023/07/10 01:14:24;;;;;;;;;;;28.00;57.00;;;;;;5061698;28;20009;-53
2023/07/10 01:16:50;;;;;;;;;;;28.00;56.90;;;;;;5054120;28;19928;-54
2023/07/10 01:19:21;;;;;;;;;;;27.90;56.80;;;;;;5052638;28;20388;-54
2023/07/10 01:21:47;;;;;;;;;;;27.90;57.40;;;;;;5070054;28;20491;-54
2023/07/10 01:24:12;;;;;;;;;;;27.80;57.20;;;;;;5057258;28;19927;-53
2023/07/10 01:26:38;;;;;;;;;;;27.90;57.00;;;;;;5067235;28;19912;-54
2023/07/10 01:29:04;;;;;;;;;;;27.90;57.10;;;;;;5072324;28;19914;-54
2023/07/10 01:31:29;;;;;;;;;;;27.80;57.40;;;;;;5067943;28;19913;-53
2023/07/10 01:33:58;;;;;;;;;;;27.80;56.80;;;;;;5070770;28;19977;-54
2023/07/10 01:36:24;;;;;;;;;;;27.90;57.40;;;;;;5048392;28;20476;-54
2023/07/10 01:38:55;;;;;;;;;;;27.80;57.40;;;;;;5051620;28;20377;-54
2023/07/10 01:41:31;;;;;;;;;;;27.90;57.40;;;;;;5046481;28;20284;-53
2023/07/10 01:43:57;;;;;;;;;;;27.90;57.30;;;;;;5055064;28;19912;-53
2023/07/10 01:46:24;;;;;;;;;;;27.80;57.40;;;;;;5063992;28;19921;-54
2023/07/10 01:48:50;;;;;;;;;;;27.80;56.90;;;;;;5050768;28;20387;-53
2023/07/10 01:51:16;;;;;;;;;;;27.80;57.50;;;;;;5050521;28;19909;-54
2023/07/10 01:53:43;;;;;;;;;;;27.80;57.10;;;;;;5054448;28;20365;-54
2023/07/10 01:56:08;;;;;;;;;;;27.80;57.30;;;;;;5052093;28;19913;-53
2023/07/10 01:58:33;;;;;;;;;;;27.80;57.20;;;;;;5064149;28;19913;-54
2023/07/10 02:01:00;;;;;;;;;;;27.80;56.80;;;;;;5063922;28;19920;-53
2023/07/10 02:03:26;;;;;;;;;;;27.80;57.10;;;;;;5069495;28;20417;-53
2023/07/10 02:05:51;;;;;;;;;;;27.70;57.50;;;;;;5064814;28;19913;-53
2023/07/10 02:08:16;;;;;;;;;;;27.70;57.50;;;;;;5074742;28;19916;-54
2023/07/10 02:10:42;;;;;;;;;;;27.60;57.90;;;;;;5067347;28;19920;-53
2023/07/10 02:13:07;;;;;;;;;;;27.70;58.20;;;;;;5067429;28;19913;-53
2023/07/10 02:15:33;;;;;;;;;;;27.60;57.90;;;;;;5073250;28;19909;-53
2023/07/10 02:17:58;;;;;;;;;;;27.70;58.10;;;;;;5053190;28;19920;-53
2023/07/10 02:20:24;;;;;;;;;;;27.60;58.20;;;;;;5055576;28;20019;-53
2023/07/10 02:22:50;;;;;;;;;;;27.60;58.00;;;;;;5055178;28;20011;-53
2023/07/10 02:25:15;;;;;;;;;;;27.60;58.40;;;;;;5055670;28;20004;-53
2023/07/10 02:27:41;;;;;;;;;;;27.60;57.40;;;;;;5054430;28;19952;-53
2023/07/10 02:30:07;;;;;;;;;;;27.60;57.80;;;;;;5057161;28;19912;-54
2023/07/10 02:32:32;;;;;;;;;;;27.60;57.70;;;;;;5057074;28;19919;-54
2023/07/10 02:34:57;;;;;;;;;;;27.60;57.70;;;;;;5068142;28;19920;-53
2023/07/10 02:37:23;;;;;;;;;;;27.60;57.80;;;;;;5075172;28;19916;-54
2023/07/10 02:39:49;;;;;;;;;;;27.60;58.30;;;;;;5069529;28;19920;-54
2023/07/10 02:42:14;;;;;;;;;;;27.60;57.80;;;;;;5073666;28;19912;-54
2023/07/10 02:44:40;;;;;;;;;;;27.60;58.40;;;;;;5057936;28;19975;-54
2023/07/10 02:47:05;;;;;;;;;;;27.50;58.60;;;;;;5057496;28;20372;-53
2023/07/10 02:49:30;;;;;;;;;;;27.50;58.70;;;;;;5074919;28;20360;-54
2023/07/10 02:51:56;;;;;;;;;;;27.50;58.50;;;;;;5065311;28;20373;-53
2023/07/10 02:54:21;;;;;;;;;;;27.50;58.80;;;;;;5073243;28;20414;-54
2023/07/10 02:56:47;;;;;;;;;;;27.40;58.90;;;;;;5072538;28;19909;-54
2023/07/10 02:59:12;;;;;;;;;;;27.40;58.80;;;;;;5053417;28;19913;-53
2023/07/10 03:01:38;;;;;;;;;;;27.40;58.50;;;;;;5071083;28;19908;-54
2023/07/10 03:04:03;;;;;;;;;;;27.50;58.90;;;;;;5062133;28;19919;-54
2023/07/10 03:06:29;;;;;;;;;;;27.40;59.20;;;;;;5052823;28;20462;-53
2023/07/10 03:08:54;;;;;;;;;;;27.40;59.40;;;;;;5053927;28;19988;-54
2023/07/10 03:11:20;;;;;;;;;;;27.30;59.20;;;;;;5061884;28;19913;-53
2023/07/10 03:13:46;;;;;;;;;;;27.30;58.90;;;;;;5070383;28;20434;-54
2023/07/10 03:16:11;;;;;;;;;;;27.30;59.40;;;;;;5054940;28;19939;-54
2023/07/10 03:18:37;;;;;;;;;;;27.30;59.70;;;;;;5058819;28;19924;-53
2023/07/10 03:21:03;;;;;;;;;;;27.20;60.30;;;;;;5059695;28;20281;-54
2023/07/10 03:23:28;;;;;;;;;;;27.20;60.00;;;;;;5053905;28;20328;-54
2023/07/10 03:25:54;;;;;;;;;;;27.20;59.70;;;;;;5054440;28;19927;-54
2023/07/10 03:28:19;;;;;;;;;;;27.20;60.40;;;;;;5057553;28;19980;-53
2023/07/10 03:30:45;;;;;;;;;;;27.20;60.50;;;;;;5074153;28;19913;-54
2023/07/10 03:33:11;;;;;;;;;;;27.20;60.40;;;;;;5069805;28;20003;-54
2023/07/10 03:35:36;;;;;;;;;;;27.10;60.50;;;;;;5064218;28;20003;-53
2023/07/10 03:38:02;;;;;;;;;;;27.10;60.80;;;;;;5061473;28;20015;-54
2023/07/10 03:40:27;;;;;;;;;;;27.10;60.70;;;;;;5054252;28;19909;-53
2023/07/10 03:42:53;;;;;;;;;;;27.20;60.80;;;;;;5052547;28;19912;-54
2023/07/10 03:45:18;;;;;;;;;;;27.20;60.70;;;;;;5066899;28;19942;-54
2023/07/10 03:47:44;;;;;;;;;;;27.20;60.70;;;;;;5073141;28;20035;-53
2023/07/10 03:50:09;;;;;;;;;;;27.20;60.60;;;;;;5059658;28;19931;-53
2023/07/10 03:52:35;;;;;;;;;;;27.20;60.80;;;;;;5067794;28;19917;-53
2023/07/10 03:55:00;;;;;;;;;;;27.10;60.70;;;;;;5071603;28;20385;-54
2023/07/10 03:57:26;;;;;;;;;;;27.20;60.70;;;;;;5053298;28;20258;-54
2023/07/10 03:59:52;;;;;;;;;;;27.20;60.70;;;;;;5058746;28;20273;-53
2023/07/10 04:02:17;;;;;;;;;;;27.10;61.30;;;;;;5062651;28;19913;-53
2023/07/10 04:04:43;;;;;;;;;;;27.10;60.70;;;;;;5071380;28;19913;-54
2023/07/10 04:07:08;;;;;;;;;;;27.10;60.90;;;;;;5061316;28;19913;-54
2023/07/10 04:09:34;;;;;;;;;;;27.10;61.00;;;;;;5062307;28;19913;-53
2023/07/10 04:11:59;;;;;;;;;;;27.20;60.70;;;;;;5054279;28;19950;-54
2023/07/10 04:14:24;;;;;;;;;;;27.20;61.00;;;;;;5071939;28;19974;-53
2023/07/10 04:16:53;;;;;;;;;;;27.20;60.90;;;;;;5072848;28;19920;-54
2023/07/10 04:19:19;;;;;;;;;;;27.20;60.90;;;;;;5055900;28;19919;-54
2023/07/10 04:21:44;;;;;;;;;;;27.20;60.70;;;;;;5061796;28;19927;-53
2023/07/10 04:24:10;;;;;;;;;;;27.20;60.60;;;;;;5062309;28;19916;-54
2023/07/10 04:26:35;;;;;;;;;;;27.20;60.00;;;;;;5070911;28;19912;-54
2023/07/10 04:29:02;;;;;;;;;;;27.20;60.30;;;;;;5072527;28;20008;-53
2023/07/10 04:31:27;;;;;;;;;;;27.20;60.30;;;;;;5067109;28;20297;-54
2023/07/10 04:33:53;;;;;;;;;;;27.20;61.40;;;;;;5061615;28;19970;-54
2023/07/10 04:36:19;;;;;;;;;;;27.10;61.10;;;;;;5068354;28;19917;-54
2023/07/10 04:38:44;;;;;;;;;;;27.10;60.70;;;;;;5072768;28;19924;-54
2023/07/10 04:41:11;;;;;;;;;;;27.20;60.90;;;;;;5062859;28;19921;-53
2023/07/10 04:43:36;;;;;;;;;;;27.20;60.60;;;;;;5065490;28;20431;-54
2023/07/10 04:46:05;;;;;;;;;;;27.20;60.80;;;;;;5059647;28;19975;-53
2023/07/10 04:48:31;;;;;;;;;;;27.20;60.70;;;;;;5053830;28;19916;-53
2023/07/10 04:50:57;;;;;;;;;;;27.20;60.70;;;;;;5058776;28;20280;-53
2023/07/10 04:53:23;;;;;;;;;;;27.20;60.30;;;;;;5065429;28;20320;-53
2023/07/10 04:55:49;;;;;;;;;;;27.20;60.50;;;;;;5071391;28;19999;-54
2023/07/10 04:58:15;;;;;;;;;;;27.20;60.50;;;;;;5053691;28;19916;-54
2023/07/10 05:00:40;;;;;;;;;;;27.20;60.70;;;;;;5053039;28;20270;-54
2023/07/10 05:03:06;;;;;;;;;;;27.20;60.40;;;;;;5050129;28;19913;-54
2023/07/10 05:05:31;;;;;;;;;;;27.20;60.40;;;;;;5059851;28;19913;-54
2023/07/10 05:07:57;;;;;;;;;;;27.30;60.10;;;;;;5068241;28;19921;-54
2023/07/10 05:10:22;;;;;;;;;;;27.20;60.50;;;;;;5064056;28;19913;-53
2023/07/10 05:12:48;;;;;;;;;;;27.20;59.90;;;;;;5054654;28;19913;-53
2023/07/10 05:15:13;;;;;;;;;;;27.20;60.70;;;;;;5052134;28;20429;-54
2023/07/10 05:17:40;;;;;;;;;;;27.20;60.30;;;;;;5045172;28;19966;-53
2023/07/10 05:20:06;;;;;;;;;;;27.20;60.50;;;;;;5052368;28;20357;-53
2023/07/10 05:22:31;;;;;;;;;;;27.20;60.60;;;;;;5062306;28;19920;-54
2023/07/10 05:24:57;;;;;;;;;;;27.30;60.30;;;;;;5071851;28;19908;-54
2023/07/10 05:27:22;;;;;;;;;;;27.30;60.10;;;;;;5067937;28;19916;-53
2023/07/10 05:29:47;;;;;;;;;;;27.30;60.30;;;;;;5051921;28;20007;-54
2023/07/10 05:32:13;;;;;;;;;;;27.30;60.20;;;;;;5056605;28;19912;-54
2023/07/10 05:34:38;;;;;;;;;;;27.30;60.70;;;;;;5055545;28;19916;-54
2023/07/10 05:37:04;;;;;;;;;;;27.20;60.60;;;;;;5059192;28;20222;-53
2023/07/10 05:39:30;;;;;;;;;;;27.20;60.70;;;;;;5063002;28;20455;-54
2023/07/10 05:41:55;;;;;;;;;;;27.30;61.00;;;;;;5072981;28;19909;-53
2023/07/10 05:44:21;;;;;;;;;;;27.20;60.70;;;;;;5073335;28;20011;-53
2023/07/10 05:46:47;;;;;;;;;;;27.20;61.00;;;;;;5069456;28;20011;-53
2023/07/10 05:49:12;;;;;;;;;;;27.20;61.20;;;;;;5074664;28;19931;-54
2023/07/10 05:51:38;;;;;;;;;;;27.20;60.90;;;;;;5057963;28;19922;-54
2023/07/10 05:54:03;;;;;;;;;;;27.20;60.70;;;;;;5055192;28;19986;-53
2023/07/10 05:56:29;;;;;;;;;;;27.20;60.90;;;;;;5053909;28;20045;-54
2023/07/10 05:58:54;;;;;;;;;;;27.20;60.70;;;;;;5056533;28;19913;-53
2023/07/10 06:01:20;;;;;;;;;;;27.20;61.10;;;;;;5054935;28;19986;-53
2023/07/10 06:03:45;;;;;;;;;;;27.20;61.20;;;;;;5055616;28;19912;-54
2023/07/10 06:06:11;;;;;;;;;;;27.20;61.20;;;;;;5074448;28;19916;-54
2023/07/10 06:08:36;;;;;;;;;;;27.20;61.40;;;;;;5064167;28;19974;-53
2023/07/10 06:11:02;;;;;;;;;;;27.20;61.10;;;;;;5055770;28;19948;-54
2023/07/10 06:13:27;;;;;;;;;;;27.20;61.30;;;;;;5053312;28;19908;-54
2023/07/10 06:15:54;;;;;;;;;;;27.20;61.50;;;;;;5057986;28;19916;-53
2023/07/10 06:18:20;;;;;;;;;;;27.10;61.90;;;;;;5057861;28;20003;-53
2023/07/10 06:20:52;;;;;;;;;;;27.10;62.00;;;;;;5068204;28;19951;-54
2023/07/10 06:23:18;;;;;;;;;;;27.10;62.30;;;;;;5064147;28;20328;-53
2023/07/10 06:25:44;;;;;;;;;;;27.10;62.50;;;;;;5060884;28;19917;-54
2023/07/10 06:28:09;;;;;;;;;;;27.10;61.90;;;;;;5054344;28;20004;-54
2023/07/10 06:30:41;;;;;;;;;;;27.10;62.60;;;;;;5072936;28;19957;-54
2023/07/10 06:33:07;;;;;;;;;;;27.10;62.60;;;;;;5074699;28;20408;-54
2023/07/10 06:35:32;;;;;;;;;;;27.10;62.70;;;;;;5061244;28;19924;-53
2023/07/10 06:37:58;;;;;;;;;;;27.10;62.50;;;;;;5053991;28;19913;-53
2023/07/10 06:40:23;;;;;;;;;;;27.10;62.70;;;;;;5056785;28;19916;-54
2023/07/10 06:42:49;;;;;;;;;;;27.10;62.80;;;;;;5059715;28;19912;-54
2023/07/10 06:45:14;;;;;;;;;;;27.10;62.80;;;;;;5074477;28;19937;-54
2023/07/10 06:47:40;;;;;;;;;;;27.00;63.00;;;;;;5055995;28;20368;-54
2023/07/10 06:50:06;;;;;;;;;;;27.00;63.30;;;;;;5055777;28;19912;-54
2023/07/10 06:52:32;;;;;;;;;;;26.90;63.40;;;;;;5052837;28;19913;-53
2023/07/10 06:54:58;;;;;;;;;;;26.90;63.40;;;;;;5060810;28;19931;-54
2023/07/10 06:57:23;;;;;;;;;;;26.90;63.70;;;;;;5055429;28;19912;-53
2023/07/10 06:59:48;;;;;;;;;;;26.90;63.90;;;;;;5065532;28;19920;-53
2023/07/10 07:02:14;;;;;;;;;;;26.90;64.20;;;;;;5055255;28;20007;-54
2023/07/10 07:04:40;;;;;;;;;;;26.90;64.00;;;;;;5052678;28;19943;-53
2023/07/10 07:07:06;;;;;;;;;;;27.00;63.90;;;;;;5062795;28;19939;-53
2023/07/10 07:09:31;;;;;;;;;;;27.00;64.10;;;;;;5074080;28;20008;-53
2023/07/10 07:11:58;;;;;;;;;;;26.90;64.10;;;;;;5060863;28;19921;-54
2023/07/10 07:14:24;;;;;;;;;;;27.00;64.20;;;;;;5070157;28;19912;-54
2023/07/10 07:16:50;;;;;;;;;;;27.00;64.10;;;;;;5072748;28;19920;-54
2023/07/10 07:19:15;;;;;;;;;;;27.00;64.20;;;;;;5060969;28;19916;-53
2023/07/10 07:21:40;;;;;;;;;;;26.90;64.50;;;;;;5061460;28;20007;-54
2023/07/10 07:24:06;;;;;;;;;;;26.90;64.10;;;;;;5064426;28;19913;-54
2023/07/10 07:26:31;;;;;;;;;;;26.90;64.80;;;;;;5065826;28;20384;-54
2023/07/10 07:28:57;;;;;;;;;;;26.90;64.60;;;;;;5056430;28;19984;-53
2023/07/10 07:31:22;;;;;;;;;;;26.80;64.80;;;;;;5059953;28;20265;-54
2023/07/10 07:33:48;;;;;;;;;;;26.80;64.60;;;;;;5060631;28;20285;-54
2023/07/10 07:36:14;;;;;;;;;;;26.80;64.50;;;;;;5054398;28;20002;-54
2023/07/10 07:38:39;;;;;;;;;;;26.80;64.40;;;;;;5053482;28;20301;-54
2023/07/10 07:41:06;;;;;;;;;;;26.90;64.60;;;;;;5065009;28;20364;-54
2023/07/10 07:43:32;;;;;;;;;;;26.80;64.60;;;;;;5072494;28;19909;-54
2023/07/10 07:45:57;;;;;;;;;;;26.80;64.50;;;;;;5071067;28;20399;-54
2023/07/10 07:48:23;;;;;;;;;;;26.80;64.60;;;;;;5054375;28;20379;-54
2023/07/10 07:50:59;;;;;;;;;;;26.80;64.60;;;;;;5068321;28;19909;-54
2023/07/10 07:53:24;;;;;;;;;;;26.80;64.40;;;;;;5057955;28;19912;-53
2023/07/10 07:55:50;;;;;;;;;;;26.80;64.40;;;;;;5065677;28;20015;-54
2023/07/10 07:58:15;;;;;;;;;;;26.80;64.30;;;;;;5066059;28;19968;-53
2023/07/10 08:00:41;;;;;;;;;;;26.80;64.50;;;;;;5069715;28;19920;-54
2023/07/10 08:03:08;;;;;;;;;;;26.90;64.50;;;;;;5072635;28;19963;-54
2023/07/10 08:05:34;;;;;;;;;;;26.80;64.20;;;;;;5056908;28;19909;-54
2023/07/10 08:07:59;;;;;;;;;;;26.90;64.40;;;;;;5053519;28;19939;-54
2023/07/10 08:10:25;;;;;;;;;;;26.90;64.20;;;;;;5041988;28;19920;-54
2023/07/10 08:12:50;;;;;;;;;;;26.90;64.40;;;;;;5043164;28;20034;-54
2023/07/10 08:15:15;;;;;;;;;;;26.80;64.50;;;;;;5057592;28;19968;-54
2023/07/10 08:17:41;;;;;;;;;;;26.80;64.30;;;;;;5062673;28;19916;-53
2023/07/10 08:20:09;;;;;;;;;;;26.80;64.40;;;;;;5058295;28;19917;-53
2023/07/10 08:22:35;;;;;;;;;;;26.80;64.60;;;;;;5059668;28;19936;-53
2023/07/10 08:25:01;;;;;;;;;;;26.80;64.70;;;;;;5056227;28;20352;-54
2023/07/10 08:27:27;;;;;;;;;;;26.80;64.80;;;;;;5055361;28;20365;-53
2023/07/10 08:29:52;;;;;;;;;;;26.60;65.00;;;;;;5057021;28;19919;-53
2023/07/10 08:32:18;;;;;;;;;;;26.60;65.40;;;;;;5062678;28;19955;-52
2023/07/10 08:34:43;;;;;;;;;;;26.50;65.50;;;;;;5054882;28;19924;-53
2023/07/10 08:37:09;;;;;;;;;;;26.40;65.80;;;;;;5052199;28;19932;-52
2023/07/10 08:39:34;;;;;;;;;;;26.40;65.90;;;;;;5053312;28;20616;-53
2023/07/10 08:42:00;;;;;;;;;;;26.30;65.80;;;;;;5053435;28;19916;-53
2023/07/10 08:44:30;;;;;;;;;;;26.20;66.20;;;;;;5058271;28;19912;-53
2023/07/10 08:46:56;;;;;;;;;;;26.20;66.20;;;;;;5052297;28;19924;-53
2023/07/10 08:49:35;;;;;;;;;;;26.20;66.30;;;;;;5050655;28;19923;-53
2023/07/10 08:52:07;;;;;;;;;;;26.20;66.20;;;;;;5055560;28;20003;-53
2023/07/10 08:54:32;;;;;;;;;;;26.20;66.40;;;;;;5055236;28;19928;-53
2023/07/10 08:57:04;;;;;;;;;;;26.10;67.30;;;;;;5051378;28;19909;-54
2023/07/10 08:59:33;;;;;;;;;;;26.20;66.60;;;;;;5056901;28;20384;-54
2023/07/10 09:01:59;;;;;;;;;;;26.10;66.70;;;;;;5053708;28;19916;-54
2023/07/10 09:04:24;;;;;;;;;;;26.20;66.50;;;;;;5060087;28;19928;-52
2023/07/10 09:06:51;;;;;;;;;;;26.20;66.60;;;;;;5057440;28;19913;-53
2023/07/10 09:09:25;;;;;;;;;;;26.30;66.20;;;;;;5051070;28;20566;-53
2023/07/10 09:11:51;;;;;;;;;;;26.20;66.30;;;;;;5057114;28;20076;-53
2023/07/10 09:14:36;;;;;;;;;;;26.20;66.30;;;;;;5058878;28;20005;-54
2023/07/10 09:17:01;;;;;;;;;;;26.30;66.30;;;;;;5051263;28;19975;-54
2023/07/10 09:19:27;;;;;;;;;;;26.30;66.10;;;;;;5058361;28;19913;-53
2023/07/10 09:21:52;;;;;;;;;;;26.20;66.40;;;;;;5076393;28;19920;-53
2023/07/10 09:24:18;;;;;;;;;;;26.20;66.20;;;;;;5054912;28;19916;-53
2023/07/10 09:26:44;;;;;;;;;;;26.20;66.10;;;;;;5060952;28;19963;-54
2023/07/10 09:29:09;;;;;;;;;;;26.10;66.20;;;;;;5048601;28;20448;-54
2023/07/10 09:31:53;;;;;;;;;;;26.20;65.90;;;;;;5053611;28;19939;-54
2023/07/10 09:34:22;;;;;;;;;;;26.20;65.50;;;;;;5056488;28;19913;-54
2023/07/10 09:36:51;;;;;;;;;;;26.20;65.20;;;;;;5052062;28;20365;-55
2023/07/10 09:39:17;;;;;;;;;;;26.30;64.90;;;;;;5056446;28;20655;-54
2023/07/10 09:41:42;;;;;;;;;;;26.20;64.60;;;;;;5060057;28;19939;-55
2023/07/10 09:44:15;;;;;;;;;;;26.20;64.50;;;;;;5050910;28;19909;-54
2023/07/10 09:46:41;;;;;;;;;;;26.10;64.30;;;;;;5055520;28;20003;-53
2023/07/10 09:49:10;;;;;;;;;;;26.30;64.20;;;;;;5054087;28;20420;-55
2023/07/10 09:51:36;;;;;;;;;;;26.30;63.20;;;;;;5052762;28;19912;-54
2023/07/10 09:54:06;;;;;;;;;;;26.30;63.10;;;;;;5054265;28;19927;-53
2023/07/10 09:56:37;;;;;;;;;;;26.30;63.10;;;;;;5051257;28;20335;-53
2023/07/10 09:59:13;;;;;;;;;;;26.30;63.10;;;;;;5050679;28;20280;-55
2023/07/10 10:01:39;;;;;;;;;;;26.30;63.00;;;;;;5055830;28;19966;-54
2023/07/10 10:04:04;;;;;;;;;;;26.40;62.80;;;;;;5049883;28;19912;-54
2023/07/10 10:06:30;;;;;;;;;;;26.40;62.60;;;;;;5050833;28;19917;-55
2023/07/10 10:08:55;;;;;;;;;;;26.40;62.50;;;;;;5051491;28;19917;-54
2023/07/10 10:11:34;;;;;;;;;;;26.40;62.40;;;;;;5053933;28;19921;-54
2023/07/10 10:14:00;;;;;;;;;;;26.30;61.80;;;;;;5059288;28;19927;-54
2023/07/10 10:16:35;;;;;;;;;;;26.40;61.60;;;;;;5067814;28;20368;-55
2023/07/10 10:19:00;;;;;;;;;;;26.50;60.70;;;;;;5063496;28;20269;-54
2023/07/10 10:21:25;;;;;;;;;;;26.40;60.50;;;;;;5050326;28;19927;-54
2023/07/10 10:23:51;;;;;;;;;;;26.50;60.60;;;;;;5049351;28;20003;-54
2023/07/10 10:26:20;;;;;;;;;;;26.50;60.10;;;;;;5055349;28;20735;-53
2023/07/10 10:28:51;;;;;;;;;;;26.50;60.40;;;;;;5052920;28;19921;-54
2023/07/10 10:31:18;;;;;;;;;;;26.60;60.10;;;;;;5056573;28;20031;-53
2023/07/10 10:33:54;;;;;;;;;;;26.60;59.70;;;;;;5066060;28;19912;-53
2023/07/10 10:36:23;;;;;;;;;;;26.50;59.80;;;;;;5055646;28;19917;-54
2023/07/10 10:39:00;;;;;;;;;;;26.50;59.60;;;;;;5053666;28;19992;-53
2023/07/10 10:41:37;;;;;;;;;;;26.50;59.50;;;;;;5061293;28;19916;-54
2023/07/10 10:44:08;;;;;;;;;;;26.50;59.20;;;;;;5055799;28;19916;-54
2023/07/10 10:46:42;;;;;;;;;;;26.50;59.40;;;;;;5055217;28;19943;-54
2023/07/10 10:49:16;;;;;;;;;;;26.60;59.60;;;;;;5063788;28;19920;-54
2023/07/10 10:51:48;;;;;;;;;;;26.60;59.40;;;;;;5054517;28;19951;-53
2023/07/10 10:54:16;;;;;;;;;;;26.70;59.60;;;;;;5053149;28;20466;-53
2023/07/10 10:56:46;;;;;;;;;;;26.70;59.20;;;;;;5052844;28;20422;-54
2023/07/10 10:59:30;;;;;;;;;;;26.70;59.20;;;;;;5052270;28;19982;-54
2023/07/10 11:01:56;;;;;;;;;;;26.60;59.40;;;;;;5054581;28;20026;-54
2023/07/10 11:04:22;;;;;;;;;;;26.60;59.30;;;;;;5053695;28;19999;-54
2023/07/10 11:06:49;;;;;;;;;;;26.60;59.20;;;;;;5053492;28;19920;-54
2023/07/10 11:09:19;;;;;;;;;;;26.60;59.10;;;;;;5051819;28;19928;-54
2023/07/10 11:11:45;;;;;;;;;;;26.60;59.00;;;;;;5064054;28;19932;-53
2023/07/10 11:14:11;;;;;;;;;;;26.60;59.10;;;;;;5060188;28;19916;-53
2023/07/10 11:16:36;;;;;;;;;;;26.60;58.60;;;;;;5054524;28;19920;-54
2023/07/10 11:19:02;;;;;;;;;;;26.50;58.30;;;;;;5057071;28;19921;-53
2023/07/10 11:21:28;;;;;;;;;;;26.40;58.10;;;;;;5062376;28;19919;-53
2023/07/10 11:23:54;;;;;;;;;;;26.50;58.20;;;;;;5035016;28;19916;-54
2023/07/10 11:26:20;;;;;;;;;;;26.50;58.30;;;;;;5057399;28;19917;-54
2023/07/10 11:28:52;;;;;;;;;;;26.60;58.10;;;;;;5053384;28;20423;-54
2023/07/10 11:31:19;;;;;;;;;;;26.60;57.60;;;;;;5057449;28;19961;-53
2023/07/10 11:33:48;;;;;;;;;;;26.60;57.60;;;;;;5053568;28;20043;-53
2023/07/10 11:36:26;;;;;;;;;;;26.60;57.40;;;;;;5053176;28;19909;-54
2023/07/10 11:39:07;;;;;;;;;;;26.60;57.20;;;;;;5055585;28;19916;-53
2023/07/10 11:41:33;;;;;;;;;;;26.70;57.80;;;;;;5063484;28;20376;-53
2023/07/10 11:44:19;;;;;;;;;;;26.70;56.90;;;;;;5056965;28;19916;-53
2023/07/10 11:46:54;;;;;;;;;;;26.70;56.80;;;;;;5052461;28;19955;-54
2023/07/10 11:49:19;;;;;;;;;;;26.70;56.70;;;;;;5054239;28;19913;-54
2023/07/10 11:52:05;;;;;;;;;;;26.80;56.70;;;;;;5057875;28;19928;-54
2023/07/10 11:54:33;;;;;;;;;;;26.80;56.50;;;;;;5052578;28;19971;-54
2023/07/10 11:57:01;;;;;;;;;;;26.70;56.20;;;;;;5058349;28;20383;-54
2023/07/10 11:59:26;;;;;;;;;;;26.70;56.40;;;;;;5053309;28;20316;-54
2023/07/10 12:01:52;;;;;;;;;;;26.70;55.60;;;;;;5054649;28;19917;-54
2023/07/10 12:04:18;;;;;;;;;;;26.70;55.60;;;;;;5054667;28;19919;-54
2023/07/10 12:06:44;;;;;;;;;;;26.80;55.10;;;;;;5050547;28;19917;-54
2023/07/10 12:09:09;;;;;;;;;;;26.80;54.50;;;;;;5052038;28;20293;-54
2023/07/10 12:11:38;;;;;;;;;;;26.80;54.70;;;;;;5054216;28;19969;-54
2023/07/10 12:14:11;;;;;;;;;;;26.80;54.30;;;;;;5049100;28;19931;-53
2023/07/10 12:16:55;;;;;;;;;;;26.80;54.10;;;;;;5060187;28;19917;-53
2023/07/10 12:19:36;;;;;;;;;;;26.80;53.30;;;;;;5061492;28;20225;-54
2023/07/10 12:22:02;;;;;;;;;;;26.80;53.60;;;;;;5051804;28;20316;-54
2023/07/10 12:24:27;;;;;;;;;;;26.70;53.50;;;;;;5052436;28;19919;-54
2023/07/10 12:26:53;;;;;;;;;;;26.80;53.50;;;;;;5060518;28;19916;-54
2023/07/10 12:29:18;;;;;;;;;;;26.90;53.30;;;;;;5065600;28;20002;-55
2023/07/10 12:31:44;;;;;;;;;;;26.90;53.20;;;;;;5066036;28;19916;-53
2023/07/10 12:34:14;;;;;;;;;;;26.80;52.90;;;;;;5059131;28;19940;-54
2023/07/10 12:36:39;;;;;;;;;;;26.70;52.50;;;;;;5053342;28;19935;-54
2023/07/10 12:39:05;;;;;;;;;;;26.80;52.40;;;;;;5051496;28;20296;-53
2023/07/10 12:41:34;;;;;;;;;;;26.70;52.50;;;;;;5051186;28;19921;-54
2023/07/10 12:44:01;;;;;;;;;;;26.70;52.00;;;;;;5053042;28;19966;-55
2023/07/10 12:46:27;;;;;;;;;;;26.70;51.80;;;;;;5058438;28;19956;-54
2023/07/10 12:48:59;;;;;;;;;;;26.70;52.40;;;;;;5054134;28;19920;-54
2023/07/10 12:51:28;;;;;;;;;;;26.80;51.80;;;;;;5048482;28;19917;-54
2023/07/10 12:53:54;;;;;;;;;;;26.80;51.40;;;;;;5064138;28;19920;-54
2023/07/10 12:56:32;;;;;;;;;;;26.80;51.20;;;;;;5056397;28;19941;-54
2023/07/10 12:58:58;;;;;;;;;;;26.80;51.40;;;;;;5055211;28;20039;-54
2023/07/10 13:01:24;;;;;;;;;;;27.00;51.20;;;;;;5052711;28;19934;-53
2023/07/10 13:04:05;;;;;;;;;;;26.90;50.90;;;;;;5057292;28;19975;-53
2023/07/10 13:06:30;;;;;;;;;;;27.00;51.20;;;;;;5054731;28;19916;-54
2023/07/10 13:08:57;;;;;;;;;;;26.90;50.50;;;;;;5050506;28;19959;-53
2023/07/10 13:11:22;;;;;;;;;;;26.90;50.90;;;;;;5057721;28;20437;-54
2023/07/10 13:13:48;;;;;;;;;;;27.00;50.80;;;;;;5054231;28;19916;-54
2023/07/10 13:16:16;;;;;;;;;;;26.90;50.60;;;;;;5051818;28;19913;-53
2023/07/10 13:18:41;;;;;;;;;;;26.90;49.90;;;;;;5060696;28;22063;-54
2023/07/10 13:21:07;;;;;;;;;;;26.90;50.00;;;;;;5057328;28;19919;-54
2023/07/10 13:23:33;;;;;;;;;;;26.80;50.60;;;;;;5049937;28;19916;-54
2023/07/10 13:25:58;;;;;;;;;;;27.00;49.60;;;;;;5055531;28;20230;-54
2023/07/10 13:28:25;;;;;;;;;;;26.90;49.60;;;;;;5055153;28;19913;-53
2023/07/10 13:30:50;;;;;;;;;;;26.90;49.80;;;;;;5051224;28;19951;-54
2023/07/10 13:33:17;;;;;;;;;;;27.00;49.80;;;;;;5059051;28;20488;-54
2023/07/10 13:35:42;;;;;;;;;;;27.10;48.90;;;;;;5053424;28;19981;-53
2023/07/10 13:38:10;;;;;;;;;;;27.00;48.70;;;;;;5053030;28;19920;-52
2023/07/10 13:40:36;;;;;;;;;;;27.00;48.80;;;;;;5053624;28;19913;-54
2023/07/10 13:43:01;;;;;;;;;;;27.10;49.20;;;;;;5056169;28;19969;-54
2023/07/10 13:45:27;;;;;;;;;;;27.10;48.70;;;;;;5049104;28;19920;-54
2023/07/10 13:47:52;;;;;;;;;;;27.10;48.80;;;;;;5054205;28;20431;-54
2023/07/10 13:50:18;;;;;;;;;;;27.10;48.30;;;;;;5052560;28;19912;-53
2023/07/10 13:52:43;;;;;;;;;;;27.20;48.40;;;;;;5053211;28;19908;-55
2023/07/10 13:55:10;;;;;;;;;;;27.10;48.70;;;;;;5056728;28;19917;-54
2023/07/10 13:57:36;;;;;;;;;;;27.10;48.10;;;;;;5061880;28;19966;-54
2023/07/10 14:00:02;;;;;;;;;;;27.10;47.90;;;;;;5071266;28;20372;-53
2023/07/10 14:02:34;;;;;;;;;;;27.20;48.30;;;;;;5073979;28;20472;-54
2023/07/10 14:05:00;;;;;;;;;;;27.20;48.00;;;;;;5060212;28;19909;-53
2023/07/10 14:07:26;;;;;;;;;;;27.20;47.70;;;;;;5061673;28;19924;-55
2023/07/10 14:09:54;;;;;;;;;;;27.20;47.70;;;;;;5060965;28;19951;-54
2023/07/10 14:12:22;;;;;;;;;;;27.20;46.90;;;;;;5055421;28;19909;-54
2023/07/10 14:14:48;;;;;;;;;;;27.20;46.70;;;;;;5058028;28;19916;-54
2023/07/10 14:17:16;;;;;;;;;;;27.20;46.90;;;;;;5054442;28;19996;-54